createdAt,value
2022-07-29T00:00:19.039Z,3.70
2022-07-29T00:02:46.868Z,4.13
2022-07-29T00:05:18.558Z,3.73
2022-07-29T00:07:46.159Z,4.03
2022-07-29T00:10:14.138Z,4.00
2022-07-29T00:12:41.270Z,3.60
2022-07-29T00:15:15.563Z,3.80
2022-07-29T00:17:42.359Z,4.10
2022-07-29T00:20:09.861Z,3.53
2022-07-29T00:22:41.315Z,3.50
2022-07-29T00:25:09.210Z,3.60
2022-07-29T00:27:37.200Z,3.53
2022-07-29T00:30:04.969Z,3.70
2022-07-29T00:32:32.963Z,3.30
2022-07-29T00:35:18.734Z,3.30
2022-07-29T00:37:50.041Z,3.00
2022-07-29T00:40:20.178Z,2.97
2022-07-29T00:42:51.284Z,2.90
2022-07-29T00:45:18.971Z,3.10
2022-07-29T00:47:46.831Z,3.17
2022-07-29T00:50:14.796Z,3.10
2022-07-29T00:52:42.836Z,3.20
2022-07-29T00:55:13.208Z,3.40
2022-07-29T00:57:45.344Z,2.80
2022-07-29T01:00:23.421Z,3.30
2022-07-29T01:02:50.837Z,3.10
2022-07-29T01:05:49.940Z,2.90
2022-07-29T01:08:14.713Z,2.63
2022-07-29T01:10:41.899Z,2.83
2022-07-29T01:13:09.113Z,3.27
2022-07-29T01:15:36.775Z,3.27
2022-07-29T01:18:15.123Z,2.77
2022-07-29T01:21:18.130Z,2.93
2022-07-29T01:24:05.870Z,2.47
2022-07-29T01:26:59.200Z,3.37
2022-07-29T01:29:38.584Z,2.37
2022-07-29T01:32:27.343Z,2.80
2022-07-29T01:35:17.798Z,2.60
2022-07-29T01:37:45.724Z,2.40
2022-07-29T01:40:20.244Z,2.37
2022-07-29T01:42:51.624Z,2.77
2022-07-29T01:45:25.557Z,2.43
2022-07-29T01:48:00.201Z,2.17
2022-07-29T01:50:39.145Z,2.03
2022-07-29T01:53:07.964Z,2.20
2022-07-29T01:55:43.381Z,2.30
2022-07-29T01:58:10.663Z,2.87
2022-07-29T02:00:37.833Z,1.97
2022-07-29T02:03:07.113Z,1.90
2022-07-29T02:05:34.819Z,1.80
2022-07-29T02:08:01.990Z,1.70
2022-07-29T02:10:30.794Z,1.80
2022-07-29T02:12:58.103Z,2.10
2022-07-29T02:15:26.434Z,1.97
2022-07-29T02:18:06.731Z,1.80
2022-07-29T02:20:33.933Z,1.90
2022-07-29T02:23:01.311Z,1.87
2022-07-29T02:25:36.796Z,1.80
2022-07-29T02:28:05.356Z,1.77
2022-07-29T02:30:32.547Z,1.77
2022-07-29T02:32:59.691Z,2.13
2022-07-29T02:35:26.896Z,2.00
2022-07-29T02:38:12.527Z,1.80
2022-07-29T02:40:40.102Z,2.53
2022-07-29T02:43:08.261Z,1.90
2022-07-29T02:45:35.588Z,1.80
2022-07-29T02:48:11.620Z,1.97
2022-07-29T02:51:09.863Z,2.47
2022-07-29T02:53:39.552Z,2.00
2022-07-29T02:56:14.393Z,2.03
2022-07-29T02:58:55.160Z,2.03
2022-07-29T03:01:29.252Z,2.10
2022-07-29T03:03:56.861Z,1.83
2022-07-29T03:06:28.858Z,1.80
2022-07-29T03:09:13.390Z,2.00
2022-07-29T03:11:49.562Z,2.03
2022-07-29T03:14:19.412Z,1.80
2022-07-29T03:16:47.030Z,2.00
2022-07-29T03:19:14.868Z,2.00
2022-07-29T03:21:42.289Z,2.73
2022-07-29T03:24:10.736Z,1.90
2022-07-29T03:26:38.340Z,1.93
2022-07-29T03:29:05.977Z,2.00
2022-07-29T03:31:34.579Z,2.07
2022-07-29T03:34:01.780Z,2.00
2022-07-29T03:36:29.003Z,2.10
2022-07-29T03:38:56.156Z,2.10
2022-07-29T03:41:22.897Z,2.30
2022-07-29T03:43:50.496Z,2.43
2022-07-29T03:46:19.683Z,2.13
2022-07-29T03:48:47.991Z,2.07
2022-07-29T03:51:15.561Z,2.43
2022-07-29T03:53:43.201Z,1.87
2022-07-29T03:56:13.289Z,1.83
2022-07-29T03:58:40.491Z,1.97
2022-07-29T04:01:08.128Z,2.90
2022-07-29T04:03:36.058Z,2.20
2022-07-29T04:06:07.692Z,2.20
2022-07-29T04:08:35.678Z,2.20
2022-07-29T04:11:02.936Z,1.93
2022-07-29T04:13:30.558Z,2.20
2022-07-29T04:15:58.258Z,2.10
2022-07-29T04:18:26.261Z,2.50
2022-07-29T04:20:56.159Z,2.17
2022-07-29T04:23:24.308Z,1.93
2022-07-29T04:25:51.530Z,1.90
2022-07-29T04:28:20.784Z,1.90
2022-07-29T04:30:47.989Z,2.00
2022-07-29T04:33:16.018Z,1.73
2022-07-29T04:35:47.202Z,1.63
2022-07-29T04:38:19.858Z,2.00
2022-07-29T04:40:47.505Z,1.73
2022-07-29T04:43:16.848Z,1.80
2022-07-29T04:45:49.997Z,1.93
2022-07-29T04:48:17.418Z,1.77
2022-07-29T04:50:45.350Z,2.13
2022-07-29T04:53:12.554Z,1.63
2022-07-29T04:55:40.085Z,1.70
2022-07-29T04:58:08.540Z,1.87
2022-07-29T05:00:36.175Z,1.60
2022-07-29T05:03:06.736Z,1.60
2022-07-29T05:05:34.715Z,2.10
2022-07-29T05:08:02.370Z,1.90
2022-07-29T05:10:29.844Z,1.90
2022-07-29T05:12:57.373Z,1.60
2022-07-29T05:15:25.043Z,2.00
2022-07-29T05:17:52.610Z,2.00
2022-07-29T05:20:19.817Z,2.00
2022-07-29T05:22:47.449Z,2.00
2022-07-29T05:25:15.048Z,1.60
2022-07-29T05:27:42.229Z,1.83
2022-07-29T05:30:12.257Z,1.50
2022-07-29T05:32:39.444Z,1.60
2022-07-29T05:35:07.229Z,1.57
2022-07-29T05:37:35.251Z,1.77
2022-07-29T05:40:02.969Z,1.50
2022-07-29T05:42:32.080Z,1.70
2022-07-29T05:44:59.343Z,1.40
2022-07-29T05:47:26.698Z,1.70
2022-07-29T05:49:54.042Z,1.63
2022-07-29T05:52:23.861Z,1.23
2022-07-29T05:54:52.207Z,1.43
2022-07-29T05:57:23.403Z,1.40
2022-07-29T05:59:55.097Z,1.20
2022-07-29T06:02:23.083Z,1.20
2022-07-29T06:04:50.529Z,1.27
2022-07-29T06:07:17.746Z,1.40
2022-07-29T06:09:45.757Z,1.43
2022-07-29T06:12:12.894Z,1.30
2022-07-29T06:14:40.086Z,1.00
2022-07-29T06:17:07.190Z,1.10
2022-07-29T06:19:37.489Z,1.30
2022-07-29T06:22:11.514Z,1.30
2022-07-29T06:24:42.573Z,1.27
2022-07-29T06:27:10.776Z,1.63
2022-07-29T06:29:38.747Z,1.60
2022-07-29T06:32:06.327Z,1.30
2022-07-29T06:34:33.605Z,1.37
2022-07-29T06:37:00.753Z,1.67
2022-07-29T06:39:30.130Z,1.40
2022-07-29T06:41:57.992Z,1.37
2022-07-29T06:44:25.744Z,1.20
2022-07-29T06:46:55.813Z,1.40
2022-07-29T06:49:22.992Z,1.27
2022-07-29T06:51:50.231Z,1.40
2022-07-29T06:54:18.002Z,1.40
2022-07-29T06:56:45.437Z,1.37
2022-07-29T06:59:12.743Z,1.37
2022-07-29T07:01:43.429Z,1.30
2022-07-29T07:04:13.590Z,1.60
2022-07-29T07:06:40.578Z,1.40
2022-07-29T07:09:10.043Z,1.30
2022-07-29T07:11:36.834Z,1.50
2022-07-29T07:14:06.178Z,1.30
2022-07-29T07:16:34.003Z,1.50
2022-07-29T07:19:03.855Z,1.20
2022-07-29T07:21:33.578Z,1.50
2022-07-29T07:24:01.532Z,1.35
2022-07-29T07:26:28.799Z,1.20
2022-07-29T07:28:56.434Z,1.10
2022-07-29T07:31:23.476Z,1.30
2022-07-29T07:33:50.680Z,1.70
2022-07-29T07:36:17.785Z,1.13
2022-07-29T07:38:44.950Z,1.30
2022-07-29T07:41:11.704Z,1.20
2022-07-29T07:43:40.704Z,1.65
2022-07-29T07:46:07.926Z,1.55
2022-07-29T07:48:35.845Z,1.50
2022-07-29T07:51:02.724Z,1.40
2022-07-29T07:53:30.731Z,1.73
2022-07-29T07:56:10.474Z,1.38
2022-07-29T07:58:38.361Z,1.38
2022-07-29T08:01:05.338Z,1.27
2022-07-29T08:03:32.403Z,1.30
2022-07-29T08:05:59.542Z,1.23
2022-07-29T08:08:29.081Z,1.20
2022-07-29T08:11:00.652Z,1.40
2022-07-29T08:13:31.171Z,1.40
2022-07-29T08:15:59.014Z,1.30
2022-07-29T08:18:27.030Z,1.20
2022-07-29T08:20:58.553Z,1.27
2022-07-29T08:23:25.639Z,1.67
2022-07-29T08:25:54.886Z,1.27
2022-07-29T08:28:21.756Z,1.20
2022-07-29T08:30:53.208Z,1.10
2022-07-29T08:33:20.402Z,1.30
2022-07-29T08:35:47.230Z,1.30
2022-07-29T08:38:14.406Z,1.08
2022-07-29T08:40:43.909Z,1.40
2022-07-29T08:43:14.213Z,1.10
2022-07-29T08:45:44.769Z,1.35
2022-07-29T08:48:15.966Z,1.25
2022-07-29T08:50:43.900Z,0.95
2022-07-29T08:53:15.042Z,1.10
2022-07-29T08:55:45.789Z,1.10
2022-07-29T08:58:15.750Z,1.27
2022-07-29T09:00:44.075Z,1.42
2022-07-29T09:03:18.701Z,1.30
2022-07-29T09:05:49.344Z,1.20
2022-07-29T09:08:20.070Z,1.17
2022-07-29T09:10:47.280Z,1.15
2022-07-29T09:13:14.387Z,1.55
2022-07-29T09:15:41.637Z,1.13
2022-07-29T09:18:28.930Z,1.27
2022-07-29T09:21:14.840Z,1.10
2022-07-29T09:23:43.463Z,1.38
2022-07-29T09:26:10.635Z,1.40
2022-07-29T09:28:37.381Z,1.33
2022-07-29T09:31:08.058Z,1.00
2022-07-29T09:33:41.439Z,1.10
2022-07-29T09:36:09.516Z,1.00
2022-07-29T09:38:37.689Z,1.20
2022-07-29T09:41:06.555Z,1.00
2022-07-29T09:43:38.730Z,1.40
2022-07-29T09:46:14.981Z,1.50
2022-07-29T09:48:42.692Z,1.10
2022-07-29T09:51:38.277Z,1.40
2022-07-29T09:54:24.766Z,1.00
2022-07-29T09:56:51.572Z,1.10
2022-07-29T09:59:18.431Z,1.10
2022-07-29T10:01:46.039Z,1.10
2022-07-29T10:04:13.346Z,1.45
2022-07-29T10:07:04.454Z,1.20
2022-07-29T10:09:32.484Z,1.00
2022-07-29T10:12:14.653Z,1.08
2022-07-29T10:14:42.173Z,0.90
2022-07-29T10:17:10.272Z,0.82
2022-07-29T10:19:37.983Z,0.82
2022-07-29T10:22:06.159Z,1.02
2022-07-29T10:24:34.061Z,1.20
2022-07-29T10:27:02.749Z,0.98
2022-07-29T10:29:30.417Z,1.27
2022-07-29T10:32:16.505Z,1.88
2022-07-29T10:35:05.235Z,1.20
2022-07-29T10:37:55.015Z,1.10
2022-07-29T10:41:08.700Z,1.13
2022-07-29T10:43:38.880Z,1.33
2022-07-29T10:46:09.971Z,0.90
2022-07-29T10:48:41.793Z,0.95
2022-07-29T10:51:13.406Z,1.05
2022-07-29T10:53:52.312Z,0.80
2022-07-29T10:56:30.613Z,1.55
2022-07-29T10:59:19.404Z,0.98
2022-07-29T11:01:53.361Z,1.20
2022-07-29T11:04:48.582Z,1.00
2022-07-29T11:07:17.906Z,1.02
2022-07-29T11:09:46.603Z,1.10
2022-07-29T11:12:39.400Z,1.02
2022-07-29T11:15:07.971Z,1.00
2022-07-29T11:17:53.986Z,0.80
2022-07-29T11:20:45.835Z,0.90
2022-07-29T11:23:33.495Z,1.00
2022-07-29T11:26:23.396Z,0.95
2022-07-29T11:28:55.661Z,1.38
2022-07-29T11:31:39.865Z,0.93
2022-07-29T11:34:28.238Z,0.88
2022-07-29T11:37:15.385Z,0.85
2022-07-29T11:39:51.346Z,0.98
2022-07-29T11:42:18.500Z,0.90
2022-07-29T11:44:59.423Z,1.10
2022-07-29T11:47:39.973Z,0.98
2022-07-29T11:50:10.323Z,1.05
2022-07-29T11:52:49.961Z,1.00
2022-07-29T11:55:20.606Z,1.02
2022-07-29T11:58:04.226Z,0.80
2022-07-29T12:00:39.487Z,0.90
2022-07-29T12:03:08.389Z,0.70
2022-07-29T12:05:48.273Z,1.00
2022-07-29T12:08:27.032Z,0.88
2022-07-29T12:10:54.217Z,0.82
2022-07-29T12:13:37.140Z,0.90
2022-07-29T12:16:05.617Z,0.82
2022-07-29T12:18:33.222Z,0.90
2022-07-29T12:21:03.684Z,1.15
2022-07-29T12:23:35.050Z,1.10
2022-07-29T12:26:02.719Z,0.80
2022-07-29T12:28:30.390Z,0.73
2022-07-29T12:30:58.584Z,0.90
2022-07-29T12:33:28.419Z,0.95
2022-07-29T12:36:17.556Z,1.05
2022-07-29T12:38:46.629Z,0.98
2022-07-29T12:41:13.823Z,0.98
2022-07-29T12:43:53.933Z,0.80
2022-07-29T12:46:21.154Z,0.80
2022-07-29T12:48:51.931Z,0.80
2022-07-29T12:51:21.894Z,0.80
2022-07-29T12:54:11.623Z,0.98
2022-07-29T12:56:43.502Z,0.98
2022-07-29T12:59:21.247Z,0.68
2022-07-29T13:01:50.252Z,0.93
2022-07-29T13:04:33.502Z,1.10
2022-07-29T13:07:12.833Z,1.67
2022-07-29T13:09:48.409Z,0.88
2022-07-29T13:12:22.253Z,1.10
2022-07-29T13:14:49.732Z,1.17
2022-07-29T13:17:28.371Z,0.90
2022-07-29T13:20:13.579Z,0.90
2022-07-29T13:22:41.170Z,0.80
2022-07-29T13:25:24.548Z,0.77
2022-07-29T13:27:51.749Z,0.90
2022-07-29T13:30:21.010Z,0.80
2022-07-29T13:32:48.460Z,1.00
2022-07-29T13:35:15.646Z,0.90
2022-07-29T13:37:45.284Z,0.80
2022-07-29T13:40:12.618Z,0.75
2022-07-29T13:42:40.163Z,0.80
2022-07-29T13:45:08.017Z,0.82
2022-07-29T13:47:37.780Z,0.68
2022-07-29T13:50:08.414Z,0.73
2022-07-29T13:52:35.615Z,1.10
2022-07-29T13:55:05.450Z,1.00
2022-07-29T13:57:35.556Z,0.88
2022-07-29T14:00:03.040Z,0.85
2022-07-29T14:02:30.198Z,0.85
2022-07-29T14:05:01.944Z,0.90
2022-07-29T14:07:31.868Z,0.95
2022-07-29T14:09:59.046Z,0.70
2022-07-29T14:12:27.038Z,0.73
2022-07-29T14:14:54.271Z,0.80
2022-07-29T14:17:21.480Z,0.90
2022-07-29T14:19:49.483Z,1.08
2022-07-29T14:22:16.691Z,0.80
2022-07-29T14:24:46.122Z,1.05
2022-07-29T14:27:13.775Z,1.10
2022-07-29T14:29:42.205Z,0.88
2022-07-29T14:32:10.110Z,0.80
2022-07-29T14:34:37.830Z,0.88
2022-07-29T14:37:06.785Z,0.90
2022-07-29T14:39:42.465Z,1.10
2022-07-29T14:42:10.183Z,0.80
2022-07-29T14:44:40.004Z,0.90
2022-07-29T14:47:08.232Z,0.90
2022-07-29T14:49:36.273Z,0.80
2022-07-29T14:52:03.476Z,0.95
2022-07-29T14:54:30.667Z,0.88
2022-07-29T14:57:00.449Z,0.70
2022-07-29T14:59:27.857Z,0.90
2022-07-29T15:01:55.137Z,0.80
2022-07-29T15:04:22.778Z,0.90
2022-07-29T15:06:52.888Z,0.77
2022-07-29T15:09:22.936Z,1.00
2022-07-29T15:11:50.519Z,0.90
2022-07-29T15:14:17.701Z,0.80
2022-07-29T15:16:48.090Z,0.82
2022-07-29T15:19:15.898Z,0.80
2022-07-29T15:21:48.603Z,1.02
2022-07-29T15:24:19.135Z,0.98
2022-07-29T15:26:46.718Z,0.80
2022-07-29T15:29:14.523Z,0.93
2022-07-29T15:31:41.841Z,1.00
2022-07-29T15:34:09.860Z,1.00
2022-07-29T15:36:53.591Z,0.90
2022-07-29T15:39:21.537Z,1.00
2022-07-29T15:41:49.132Z,0.90
2022-07-29T15:44:16.660Z,0.82
2022-07-29T15:47:02.944Z,0.90
2022-07-29T15:49:48.148Z,0.77
2022-07-29T15:52:17.143Z,0.90
2022-07-29T15:54:47.614Z,0.70
2022-07-29T15:57:14.804Z,0.90
2022-07-29T15:59:42.443Z,0.63
2022-07-29T16:02:11.216Z,0.90
2022-07-29T16:04:38.822Z,0.90
2022-07-29T16:07:06.044Z,1.08
2022-07-29T16:09:33.239Z,0.90
2022-07-29T16:12:00.853Z,0.80
2022-07-29T16:14:28.493Z,0.73
2022-07-29T16:16:56.654Z,0.80
2022-07-29T16:19:24.247Z,1.20
2022-07-29T16:21:51.848Z,0.80
2022-07-29T16:24:20.994Z,1.10
2022-07-29T16:26:48.212Z,1.10
2022-07-29T16:29:15.376Z,0.80
2022-07-29T16:31:42.575Z,0.90
2022-07-29T16:34:10.180Z,0.90
2022-07-29T16:36:37.352Z,1.13
2022-07-29T16:39:05.722Z,0.77
2022-07-29T16:41:32.502Z,0.88
2022-07-29T16:43:59.720Z,1.00
2022-07-29T16:46:26.884Z,1.20
2022-07-29T16:48:54.133Z,1.00
2022-07-29T16:51:21.779Z,0.80
2022-07-29T16:53:51.424Z,1.40
2022-07-29T16:56:18.580Z,1.08
2022-07-29T16:58:46.200Z,1.13
2022-07-29T17:01:13.369Z,1.17
2022-07-29T17:04:00.848Z,1.05
2022-07-29T17:06:29.585Z,1.00
2022-07-29T17:08:57.232Z,0.95
2022-07-29T17:11:52.498Z,1.38
2022-07-29T17:14:11.570Z,1.02
2022-07-29T17:16:39.164Z,0.90
2022-07-29T17:19:06.766Z,1.00
2022-07-29T17:21:34.274Z,0.90
2022-07-29T17:24:04.042Z,1.00
2022-07-29T17:26:31.496Z,0.82
2022-07-29T17:28:58.688Z,0.90
2022-07-29T17:31:25.448Z,1.10
2022-07-29T17:33:56.031Z,1.08
2022-07-29T17:36:25.548Z,1.10
2022-07-29T17:38:53.325Z,1.48
2022-07-29T17:41:22.737Z,1.17
2022-07-29T17:43:50.056Z,1.00
2022-07-29T17:46:17.618Z,1.30
2022-07-29T17:48:44.963Z,1.20
2022-07-29T17:51:12.232Z,1.02
2022-07-29T17:53:39.056Z,1.20
2022-07-29T17:56:05.862Z,1.23
2022-07-29T17:58:33.234Z,1.33
2022-07-29T18:01:00.308Z,1.00
2022-07-29T18:03:27.874Z,1.10
2022-07-29T18:05:55.420Z,1.27
2022-07-29T18:08:22.699Z,1.50
2022-07-29T18:10:49.831Z,1.35
2022-07-29T18:13:17.765Z,1.00
2022-07-29T18:15:48.590Z,1.90
2022-07-29T18:18:16.531Z,1.13
2022-07-29T18:20:44.192Z,1.25
2022-07-29T18:23:11.598Z,1.13
2022-07-29T18:25:39.302Z,1.00
2022-07-29T18:28:07.174Z,1.02
2022-07-29T18:30:36.790Z,1.10
2022-07-29T18:33:24.269Z,1.17
2022-07-29T18:36:06.109Z,1.27
2022-07-29T18:38:38.539Z,1.55
2022-07-29T18:41:08.611Z,1.30
2022-07-29T18:43:35.900Z,1.40
2022-07-29T18:46:06.679Z,1.40
2022-07-29T18:48:38.999Z,1.35
2022-07-29T18:51:09.320Z,1.33
2022-07-29T18:53:37.215Z,1.10
2022-07-29T18:56:05.134Z,1.02
2022-07-29T18:58:33.413Z,1.30
2022-07-29T19:01:01.900Z,1.25
2022-07-29T19:03:31.010Z,1.20
2022-07-29T19:05:58.127Z,1.10
2022-07-29T19:08:26.025Z,1.50
2022-07-29T19:10:54.506Z,1.10
2022-07-29T19:13:22.431Z,1.55
2022-07-29T19:15:50.024Z,1.27
2022-07-29T19:18:17.244Z,1.20
2022-07-29T19:20:44.011Z,1.20
2022-07-29T19:23:11.637Z,1.08
2022-07-29T19:25:53.062Z,1.00
2022-07-29T19:28:20.136Z,1.10
2022-07-29T19:30:50.167Z,1.33
2022-07-29T19:33:18.954Z,1.20
2022-07-29T19:35:48.388Z,1.30
2022-07-29T19:38:17.562Z,2.08
2022-07-29T19:40:45.167Z,1.60
2022-07-29T19:43:51.528Z,1.33
2022-07-29T19:45:59.236Z,1.23
2022-07-29T19:48:30.929Z,1.27
2022-07-29T19:50:57.716Z,1.40
2022-07-29T19:53:26.323Z,1.23
2022-07-29T19:55:53.136Z,1.17
2022-07-29T19:58:22.591Z,1.50
2022-07-29T20:00:54.161Z,1.05
2022-07-29T20:03:21.325Z,1.50
2022-07-29T20:05:52.508Z,1.13
2022-07-29T20:08:20.086Z,1.20
2022-07-29T20:10:49.289Z,1.38
2022-07-29T20:13:16.120Z,1.00
2022-07-29T20:15:43.451Z,1.25
2022-07-29T20:18:10.625Z,1.45
2022-07-29T20:20:37.431Z,1.42
2022-07-29T20:23:04.569Z,1.27
2022-07-29T20:25:34.602Z,1.40
2022-07-29T20:28:07.540Z,1.60
2022-07-29T20:30:34.730Z,1.00
2022-07-29T20:33:07.871Z,1.25
2022-07-29T20:35:37.033Z,1.35
2022-07-29T20:38:03.786Z,1.40
2022-07-29T20:40:33.018Z,1.08
2022-07-29T20:43:00.623Z,1.10
2022-07-29T20:45:29.015Z,1.05
2022-07-29T20:47:56.153Z,1.20
2022-07-29T20:50:24.512Z,1.05
2022-07-29T20:52:51.951Z,1.20
2022-07-29T20:55:21.794Z,1.23
2022-07-29T20:57:49.427Z,1.65
2022-07-29T21:00:17.519Z,1.40
2022-07-29T21:02:44.750Z,1.45
2022-07-29T21:05:12.056Z,1.40
2022-07-29T21:07:39.206Z,1.10
2022-07-29T21:10:08.174Z,1.33
2022-07-29T21:12:37.758Z,1.15
2022-07-29T21:15:07.445Z,1.30
2022-07-29T21:17:40.517Z,1.33
2022-07-29T21:20:09.360Z,1.30
2022-07-29T21:22:38.817Z,1.35
2022-07-29T21:25:07.596Z,1.48
2022-07-29T21:27:53.620Z,1.30
2022-07-29T21:30:20.978Z,1.30
2022-07-29T21:32:47.880Z,1.20
2022-07-29T21:35:35.758Z,1.20
2022-07-29T21:38:04.076Z,1.33
2022-07-29T21:40:31.690Z,1.33
2022-07-29T21:43:00.491Z,1.00
2022-07-29T21:45:29.944Z,1.43
2022-07-29T21:47:57.170Z,1.60
2022-07-29T21:50:24.375Z,1.20
2022-07-29T21:52:52.180Z,1.33
2022-07-29T21:55:19.264Z,1.30
2022-07-29T21:57:46.972Z,1.10
2022-07-29T22:00:17.683Z,1.50
2022-07-29T22:02:47.451Z,1.30
2022-07-29T22:05:14.739Z,1.20
2022-07-29T22:07:55.475Z,1.40
2022-07-29T22:10:23.999Z,1.55
2022-07-29T22:12:53.711Z,1.40
2022-07-29T22:15:23.860Z,1.30
2022-07-29T22:17:51.391Z,1.43
2022-07-29T22:20:21.144Z,1.17
2022-07-29T22:22:48.760Z,1.80
2022-07-29T22:25:15.966Z,1.13
2022-07-29T22:27:43.790Z,1.27
2022-07-29T22:30:12.040Z,1.33
2022-07-29T22:32:39.692Z,1.33
2022-07-29T22:35:09.822Z,1.47
2022-07-29T22:37:37.453Z,1.30
2022-07-29T22:40:04.900Z,1.40
2022-07-29T22:42:34.353Z,1.30
2022-07-29T22:45:03.540Z,1.30
2022-07-29T22:47:38.960Z,1.33
2022-07-29T22:50:17.398Z,1.40
2022-07-29T22:52:45.313Z,1.30
2022-07-29T22:55:12.191Z,1.87
2022-07-29T22:57:39.307Z,1.10
2022-07-29T23:00:08.122Z,1.40
2022-07-29T23:02:37.055Z,1.37
2022-07-29T23:05:08.741Z,1.47
2022-07-29T23:07:38.681Z,1.50
2022-07-29T23:10:08.194Z,1.33
2022-07-29T23:12:35.419Z,1.47
2022-07-29T23:15:02.621Z,1.50
2022-07-29T23:17:36.169Z,1.50
2022-07-29T23:20:11.375Z,1.43
2022-07-29T23:22:42.322Z,1.30
2022-07-29T23:25:09.587Z,1.33
2022-07-29T23:27:37.334Z,1.40
2022-07-29T23:30:10.061Z,1.20
2022-07-29T23:32:39.900Z,1.50
2022-07-29T23:35:09.584Z,1.50
2022-07-29T23:37:37.045Z,1.33
2022-07-29T23:40:05.068Z,1.40
2022-07-29T23:42:32.345Z,1.37
2022-07-29T23:45:01.829Z,1.70
2022-07-29T23:47:29.069Z,1.43
2022-07-29T23:49:57.092Z,1.50
2022-07-29T23:52:24.269Z,1.30
2022-07-29T23:54:54.719Z,1.20
2022-07-29T23:57:41.876Z,1.37
